Wildwood, Missouri
Current Conditions -  °F | °C
As of 5:54 PM on Saturday 20 Dec 2014 (Local Time) from KSUS Reporting Station
Overcast Overcast  
Wind Chill: 38°   Ceiling: 2800
Heat Index: 42°   Visibility: 10mi
Dew Point: 34°   Wind: 6mph
Humidity: 73%   Direction: 130°SE
Pressure: 30.23"   Gusts: NA
Location:  38.6038°N, 90.5556°W
Report Text: KSUS 202354Z 13005KT 10SM OVC028 06/01 A3023 RMK AO2 SLP240 T00560011 10061 20044 53003
Loading
Personal Weather Stations






























Interactive Weather Map New forecast layout! Learn more

10-Day Weather Forecast

Advertisements
Track Severe Weather on mobile